Vernon Rockville, Connecticut
Current Conditions -  °F | °C
As of 10:53 PM on Sunday 25 Jan 2015 (Local Time) from KHFD Reporting Station
Clear Clear  
Wind Chill: 11°   Ceiling: Unl
Heat Index: 21°   Visibility: 10mi
Dew Point:   Wind: 8mph
Humidity: 46%   Direction: 320°NW
Pressure: 30.04"   Gusts: NA
Location:  41.84°N, 72.47°W
Report Text: KHFD 260353Z 32007KT 10SM CLR M06/M16 A3004 RMK AO2 SLP172 T10611161
Loading
Personal Weather Stations






























Interactive Weather Map New forecast layout! Learn more

10-Day Weather Forecast

Advertisements
Track Severe Weather on mobile